sensor_id;sensor_type;location;lat;lon;timestamp;P1;durP1;ratioP1;P2;durP2;ratioP2
22240;SDS011;11289;52.524;13.694;2023-06-26T00:00:22;14.35;;;10.60;;
22240;SDS011;11289;52.524;13.694;2023-06-26T00:02:48;12.82;;;11.30;;
22240;SDS011;11289;52.524;13.694;2023-06-26T00:05:14;13.10;;;11.48;;
22240;SDS011;11289;52.524;13.694;2023-06-26T00:07:40;12.27;;;10.98;;
22240;SDS011;11289;52.524;13.694;2023-06-26T00:10:06;14.45;;;11.68;;
22240;SDS011;11289;52.524;13.694;2023-06-26T00:12:32;12.15;;;10.85;;
22240;SDS011;11289;52.524;13.694;2023-06-26T00:14:58;11.90;;;10.40;;
22240;SDS011;11289;52.524;13.694;2023-06-26T00:17:24;11.90;;;10.52;;
22240;SDS011;11289;52.524;13.694;2023-06-26T00:19:51;14.52;;;11.10;;
22240;SDS011;11289;52.524;13.694;2023-06-26T00:22:17;13.90;;;11.18;;
22240;SDS011;11289;52.524;13.694;2023-06-26T00:24:44;12.02;;;10.82;;
22240;SDS011;11289;52.524;13.694;2023-06-26T00:27:12;12.18;;;10.98;;
22240;SDS011;11289;52.524;13.694;2023-06-26T00:29:39;13.45;;;11.80;;
22240;SDS011;11289;52.524;13.694;2023-06-26T00:32:05;11.52;;;10.32;;
22240;SDS011;11289;52.524;13.694;2023-06-26T00:34:32;16.98;;;10.95;;
22240;SDS011;11289;52.524;13.694;2023-06-26T00:36:58;14.93;;;12.32;;
22240;SDS011;11289;52.524;13.694;2023-06-26T00:39:25;13.13;;;11.75;;
22240;SDS011;11289;52.524;13.694;2023-06-26T00:41:51;12.93;;;11.57;;
22240;SDS011;11289;52.524;13.694;2023-06-26T00:44:19;13.32;;;11.23;;
22240;SDS011;11289;52.524;13.694;2023-06-26T00:46:45;17.30;;;11.80;;
22240;SDS011;11289;52.524;13.694;2023-06-26T00:49:11;13.60;;;12.13;;
22240;SDS011;11289;52.524;13.694;2023-06-26T00:51:38;11.85;;;10.40;;
22240;SDS011;11289;52.524;13.694;2023-06-26T00:54:04;13.23;;;11.82;;
22240;SDS011;11289;52.524;13.694;2023-06-26T00:56:31;13.25;;;11.18;;
22240;SDS011;11289;52.524;13.694;2023-06-26T00:58:57;13.70;;;11.55;;
22240;SDS011;11289;52.524;13.694;2023-06-26T01:01:23;11.95;;;10.70;;
22240;SDS011;11289;52.524;13.694;2023-06-26T01:03:52;12.77;;;11.48;;
22240;SDS011;11289;52.524;13.694;2023-06-26T01:06:20;13.73;;;12.32;;
22240;SDS011;11289;52.524;13.694;2023-06-26T01:08:49;14.43;;;12.00;;
22240;SDS011;11289;52.524;13.694;2023-06-26T01:11:15;13.95;;;12.05;;
22240;SDS011;11289;52.524;13.694;2023-06-26T01:13:42;13.25;;;11.05;;
22240;SDS011;11289;52.524;13.694;2023-06-26T01:16:12;12.73;;;11.40;;
22240;SDS011;11289;52.524;13.694;2023-06-26T01:18:39;15.13;;;12.65;;
22240;SDS011;11289;52.524;13.694;2023-06-26T01:21:07;17.45;;;12.07;;
22240;SDS011;11289;52.524;13.694;2023-06-26T01:23:43;14.20;;;12.02;;
22240;SDS011;11289;52.524;13.694;2023-06-26T01:26:14;12.60;;;11.32;;
22240;SDS011;11289;52.524;13.694;2023-06-26T01:28:44;13.70;;;12.25;;
22240;SDS011;11289;52.524;13.694;2023-06-26T01:31:11;13.00;;;11.70;;
22240;SDS011;11289;52.524;13.694;2023-06-26T01:33:38;14.52;;;11.95;;
22240;SDS011;11289;52.524;13.694;2023-06-26T01:36:06;14.73;;;11.73;;
22240;SDS011;11289;52.524;13.694;2023-06-26T01:38:32;13.52;;;12.13;;
22240;SDS011;11289;52.524;13.694;2023-06-26T01:40:58;13.85;;;12.25;;
22240;SDS011;11289;52.524;13.694;2023-06-26T01:46:02;14.25;;;12.73;;
22240;SDS011;11289;52.524;13.694;2023-06-26T01:48:38;12.73;;;11.43;;
22240;SDS011;11289;52.524;13.694;2023-06-26T01:51:10;13.57;;;12.02;;
22240;SDS011;11289;52.524;13.694;2023-06-26T01:53:38;14.30;;;12.85;;
22240;SDS011;11289;52.524;13.694;2023-06-26T01:56:12;18.20;;;12.83;;
22240;SDS011;11289;52.524;13.694;2023-06-26T01:58:40;18.95;;;13.18;;
22240;SDS011;11289;52.524;13.694;2023-06-26T02:01:11;13.43;;;12.10;;
22240;SDS011;11289;52.524;13.694;2023-06-26T02:03:37;14.10;;;12.70;;
22240;SDS011;11289;52.524;13.694;2023-06-26T02:06:03;14.27;;;12.23;;
22240;SDS011;11289;52.524;13.694;2023-06-26T02:08:29;16.05;;;13.88;;
22240;SDS011;11289;52.524;13.694;2023-06-26T02:10:55;14.38;;;12.80;;
22240;SDS011;11289;52.524;13.694;2023-06-26T02:13:21;15.43;;;13.32;;
22240;SDS011;11289;52.524;13.694;2023-06-26T02:15:47;16.45;;;13.25;;
22240;SDS011;11289;52.524;13.694;2023-06-26T02:18:13;15.32;;;13.75;;
22240;SDS011;11289;52.524;13.694;2023-06-26T02:20:39;14.30;;;12.80;;
22240;SDS011;11289;52.524;13.694;2023-06-26T02:23:05;16.73;;;13.43;;
22240;SDS011;11289;52.524;13.694;2023-06-26T02:25:31;15.20;;;13.27;;
22240;SDS011;11289;52.524;13.694;2023-06-26T02:27:57;15.20;;;13.60;;
22240;SDS011;11289;52.524;13.694;2023-06-26T02:30:23;15.40;;;13.07;;
22240;SDS011;11289;52.524;13.694;2023-06-26T02:32:49;14.98;;;13.38;;
22240;SDS011;11289;52.524;13.694;2023-06-26T02:35:15;16.13;;;14.43;;
22240;SDS011;11289;52.524;13.694;2023-06-26T02:37:41;15.65;;;13.95;;
22240;SDS011;11289;52.524;13.694;2023-06-26T02:40:07;15.40;;;13.77;;
22240;SDS011;11289;52.524;13.694;2023-06-26T02:42:34;15.70;;;14.07;;
22240;SDS011;11289;52.524;13.694;2023-06-26T02:45:00;15.55;;;13.77;;
22240;SDS011;11289;52.524;13.694;2023-06-26T02:47:26;14.50;;;12.95;;
22240;SDS011;11289;52.524;13.694;2023-06-26T02:49:52;16.67;;;14.15;;
22240;SDS011;11289;52.524;13.694;2023-06-26T02:52:18;15.00;;;13.52;;
22240;SDS011;11289;52.524;13.694;2023-06-26T02:54:45;15.45;;;13.48;;
22240;SDS011;11289;52.524;13.694;2023-06-26T02:57:11;16.38;;;13.90;;
22240;SDS011;11289;52.524;13.694;2023-06-26T02:59:38;16.08;;;13.75;;
22240;SDS011;11289;52.524;13.694;2023-06-26T03:02:05;15.02;;;13.40;;
22240;SDS011;11289;52.524;13.694;2023-06-26T03:04:31;16.88;;;14.48;;
22240;SDS011;11289;52.524;13.694;2023-06-26T03:06:57;15.77;;;14.13;;
22240;SDS011;11289;52.524;13.694;2023-06-26T03:09:23;15.77;;;14.18;;
22240;SDS011;11289;52.524;13.694;2023-06-26T03:11:49;15.50;;;13.60;;
22240;SDS011;11289;52.524;13.694;2023-06-26T03:14:15;16.02;;;14.43;;
22240;SDS011;11289;52.524;13.694;2023-06-26T03:16:41;15.05;;;13.38;;
22240;SDS011;11289;52.524;13.694;2023-06-26T03:19:07;15.40;;;13.65;;
22240;SDS011;11289;52.524;13.694;2023-06-26T03:21:33;15.70;;;14.07;;
22240;SDS011;11289;52.524;13.694;2023-06-26T03:23:59;15.93;;;14.27;;
22240;SDS011;11289;52.524;13.694;2023-06-26T03:26:25;17.73;;;15.30;;
22240;SDS011;11289;52.524;13.694;2023-06-26T03:28:54;17.40;;;15.57;;
22240;SDS011;11289;52.524;13.694;2023-06-26T03:31:20;17.48;;;14.63;;
22240;SDS011;11289;52.524;13.694;2023-06-26T03:33:46;16.88;;;14.45;;
22240;SDS011;11289;52.524;13.694;2023-06-26T03:36:12;17.10;;;15.48;;
22240;SDS011;11289;52.524;13.694;2023-06-26T03:38:38;17.33;;;14.23;;
22240;SDS011;11289;52.524;13.694;2023-06-26T03:41:04;16.65;;;14.88;;
22240;SDS011;11289;52.524;13.694;2023-06-26T03:43:30;16.67;;;14.90;;
22240;SDS011;11289;52.524;13.694;2023-06-26T03:45:56;17.98;;;16.08;;
22240;SDS011;11289;52.524;13.694;2023-06-26T03:48:22;17.25;;;15.45;;
22240;SDS011;11289;52.524;13.694;2023-06-26T03:50:48;18.17;;;16.20;;
22240;SDS011;11289;52.524;13.694;2023-06-26T03:53:15;16.83;;;15.07;;
22240;SDS011;11289;52.524;13.694;2023-06-26T03:55:41;17.45;;;15.52;;
22240;SDS011;11289;52.524;13.694;2023-06-26T03:58:07;17.33;;;15.20;;
22240;SDS011;11289;52.524;13.694;2023-06-26T04:00:33;15.95;;;14.30;;
22240;SDS011;11289;52.524;13.694;2023-06-26T04:02:58;16.02;;;14.40;;
22240;SDS011;11289;52.524;13.694;2023-06-26T04:05:25;17.50;;;15.80;;
22240;SDS011;11289;52.524;13.694;2023-06-26T04:07:51;17.45;;;14.55;;
22240;SDS011;11289;52.524;13.694;2023-06-26T04:10:17;16.77;;;15.10;;
22240;SDS011;11289;52.524;13.694;2023-06-26T04:12:44;17.85;;;15.93;;
22240;SDS011;11289;52.524;13.694;2023-06-26T04:15:09;16.95;;;15.15;;
22240;SDS011;11289;52.524;13.694;2023-06-26T04:17:36;17.30;;;15.55;;
22240;SDS011;11289;52.524;13.694;2023-06-26T04:20:02;16.33;;;14.60;;
22240;SDS011;11289;52.524;13.694;2023-06-26T04:22:32;17.45;;;15.30;;
22240;SDS011;11289;52.524;13.694;2023-06-26T04:25:00;18.70;;;16.70;;
22240;SDS011;11289;52.524;13.694;2023-06-26T04:27:28;18.40;;;16.50;;
22240;SDS011;11289;52.524;13.694;2023-06-26T04:29:54;18.10;;;16.30;;
22240;SDS011;11289;52.524;13.694;2023-06-26T04:32:20;18.05;;;15.75;;
22240;SDS011;11289;52.524;13.694;2023-06-26T04:34:46;18.08;;;16.25;;
22240;SDS011;11289;52.524;13.694;2023-06-26T04:37:13;18.83;;;16.83;;
22240;SDS011;11289;52.524;13.694;2023-06-26T04:39:42;17.75;;;16.02;;
22240;SDS011;11289;52.524;13.694;2023-06-26T04:42:08;19.98;;;17.13;;
22240;SDS011;11289;52.524;13.694;2023-06-26T04:44:37;17.70;;;15.93;;
22240;SDS011;11289;52.524;13.694;2023-06-26T04:47:04;18.83;;;16.90;;
22240;SDS011;11289;52.524;13.694;2023-06-26T04:49:30;19.33;;;17.42;;
22240;SDS011;11289;52.524;13.694;2023-06-26T04:51:56;18.90;;;16.92;;
22240;SDS011;11289;52.524;13.694;2023-06-26T04:54:22;20.90;;;16.95;;
22240;SDS011;11289;52.524;13.694;2023-06-26T04:56:48;18.55;;;16.73;;
22240;SDS011;11289;52.524;13.694;2023-06-26T04:59:14;17.77;;;16.08;;
22240;SDS011;11289;52.524;13.694;2023-06-26T05:01:40;18.88;;;17.05;;
22240;SDS011;11289;52.524;13.694;2023-06-26T05:04:06;18.42;;;15.75;;
22240;SDS011;11289;52.524;13.694;2023-06-26T05:06:32;18.48;;;16.35;;
22240;SDS011;11289;52.524;13.694;2023-06-26T05:08:58;17.95;;;16.15;;
22240;SDS011;11289;52.524;13.694;2023-06-26T05:11:25;17.83;;;15.90;;
22240;SDS011;11289;52.524;13.694;2023-06-26T05:13:51;20.05;;;18.00;;
22240;SDS011;11289;52.524;13.694;2023-06-26T05:16:17;17.77;;;15.98;;
22240;SDS011;11289;52.524;13.694;2023-06-26T05:18:43;17.67;;;15.77;;
22240;SDS011;11289;52.524;13.694;2023-06-26T05:21:09;18.05;;;14.85;;
22240;SDS011;11289;52.524;13.694;2023-06-26T05:23:35;18.45;;;16.45;;
22240;SDS011;11289;52.524;13.694;2023-06-26T05:26:01;18.10;;;15.05;;
22240;SDS011;11289;52.524;13.694;2023-06-26T05:28:28;17.38;;;15.57;;
22240;SDS011;11289;52.524;13.694;2023-06-26T05:30:57;17.45;;;15.68;;
22240;SDS011;11289;52.524;13.694;2023-06-26T05:33:24;16.83;;;15.02;;
22240;SDS011;11289;52.524;13.694;2023-06-26T05:35:52;16.90;;;15.30;;
22240;SDS011;11289;52.524;13.694;2023-06-26T05:38:19;17.75;;;15.85;;
22240;SDS011;11289;52.524;13.694;2023-06-26T05:40:46;17.05;;;15.32;;
22240;SDS011;11289;52.524;13.694;2023-06-26T05:43:12;17.13;;;15.27;;
22240;SDS011;11289;52.524;13.694;2023-06-26T05:45:38;16.33;;;14.73;;
22240;SDS011;11289;52.524;13.694;2023-06-26T05:48:05;16.55;;;14.68;;
22240;SDS011;11289;52.524;13.694;2023-06-26T05:50:31;15.60;;;14.00;;
22240;SDS011;11289;52.524;13.694;2023-06-26T05:52:58;16.05;;;14.40;;
22240;SDS011;11289;52.524;13.694;2023-06-26T05:55:24;15.93;;;14.40;;
22240;SDS011;11289;52.524;13.694;2023-06-26T05:57:51;18.80;;;14.38;;
22240;SDS011;11289;52.524;13.694;2023-06-26T06:00:18;15.13;;;13.60;;
22240;SDS011;11289;52.524;13.694;2023-06-26T06:02:45;14.65;;;13.02;;
22240;SDS011;11289;52.524;13.694;2023-06-26T06:05:11;14.90;;;13.35;;
22240;SDS011;11289;52.524;13.694;2023-06-26T06:07:37;15.60;;;13.98;;
22240;SDS011;11289;52.524;13.694;2023-06-26T06:10:03;14.35;;;12.85;;
22240;SDS011;11289;52.524;13.694;2023-06-26T06:12:29;14.60;;;12.48;;
22240;SDS011;11289;52.524;13.694;2023-06-26T06:14:56;14.35;;;12.63;;
22240;SDS011;11289;52.524;13.694;2023-06-26T06:17:22;12.65;;;11.32;;
22240;SDS011;11289;52.524;13.694;2023-06-26T06:19:48;13.55;;;12.05;;
22240;SDS011;11289;52.524;13.694;2023-06-26T06:22:14;12.82;;;11.63;;
22240;SDS011;11289;52.524;13.694;2023-06-26T06:24:42;12.25;;;10.95;;
22240;SDS011;11289;52.524;13.694;2023-06-26T06:27:09;13.68;;;11.52;;
22240;SDS011;11289;52.524;13.694;2023-06-26T06:29:35;13.38;;;11.25;;
22240;SDS011;11289;52.524;13.694;2023-06-26T06:32:01;12.70;;;11.45;;
22240;SDS011;11289;52.524;13.694;2023-06-26T06:34:27;13.52;;;12.13;;
22240;SDS011;11289;52.524;13.694;2023-06-26T06:36:53;12.52;;;11.23;;
22240;SDS011;11289;52.524;13.694;2023-06-26T06:39:19;13.30;;;10.65;;
22240;SDS011;11289;52.524;13.694;2023-06-26T06:41:45;10.90;;;9.57;;
22240;SDS011;11289;52.524;13.694;2023-06-26T06:44:11;10.70;;;9.30;;
22240;SDS011;11289;52.524;13.694;2023-06-26T06:46:37;10.65;;;9.55;;
22240;SDS011;11289;52.524;13.694;2023-06-26T06:49:03;11.73;;;10.52;;
22240;SDS011;11289;52.524;13.694;2023-06-26T06:51:29;13.75;;;10.63;;
22240;SDS011;11289;52.524;13.694;2023-06-26T06:53:55;11.77;;;10.00;;
22240;SDS011;11289;52.524;13.694;2023-06-26T06:56:21;11.23;;;9.75;;
22240;SDS011;11289;52.524;13.694;2023-06-26T06:58:47;12.35;;;9.35;;
22240;SDS011;11289;52.524;13.694;2023-06-26T07:01:13;10.32;;;9.32;;
22240;SDS011;11289;52.524;13.694;2023-06-26T07:03:39;10.57;;;9.05;;
22240;SDS011;11289;52.524;13.694;2023-06-26T07:06:06;10.70;;;9.60;;
22240;SDS011;11289;52.524;13.694;2023-06-26T07:08:32;10.73;;;8.52;;
22240;SDS011;11289;52.524;13.694;2023-06-26T07:10:58;10.30;;;9.15;;
22240;SDS011;11289;52.524;13.694;2023-06-26T07:13:24;10.38;;;8.85;;
22240;SDS011;11289;52.524;13.694;2023-06-26T07:15:50;10.30;;;8.52;;
22240;SDS011;11289;52.524;13.694;2023-06-26T07:18:16;8.80;;;7.40;;
22240;SDS011;11289;52.524;13.694;2023-06-26T07:20:42;8.40;;;7.60;;
22240;SDS011;11289;52.524;13.694;2023-06-26T07:23:08;8.00;;;7.05;;
22240;SDS011;11289;52.524;13.694;2023-06-26T07:25:34;10.27;;;7.30;;
22240;SDS011;11289;52.524;13.694;2023-06-26T07:28:00;8.75;;;7.68;;
22240;SDS011;11289;52.524;13.694;2023-06-26T07:30:27;8.38;;;7.53;;
22240;SDS011;11289;52.524;13.694;2023-06-26T07:32:53;10.77;;;8.02;;
22240;SDS011;11289;52.524;13.694;2023-06-26T07:35:19;8.57;;;7.63;;
22240;SDS011;11289;52.524;13.694;2023-06-26T07:37:45;8.57;;;7.72;;
22240;SDS011;11289;52.524;13.694;2023-06-26T07:40:11;8.13;;;7.25;;
22240;SDS011;11289;52.524;13.694;2023-06-26T07:42:37;8.48;;;7.03;;
22240;SDS011;11289;52.524;13.694;2023-06-26T07:45:03;8.27;;;7.47;;
22240;SDS011;11289;52.524;13.694;2023-06-26T07:47:36;7.40;;;6.60;;
22240;SDS011;11289;52.524;13.694;2023-06-26T07:50:03;8.07;;;6.38;;
22240;SDS011;11289;52.524;13.694;2023-06-26T07:52:30;7.75;;;6.90;;
22240;SDS011;11289;52.524;13.694;2023-06-26T07:54:56;8.02;;;6.68;;
22240;SDS011;11289;52.524;13.694;2023-06-26T07:57:22;8.85;;;5.82;;
22240;SDS011;11289;52.524;13.694;2023-06-26T07:59:49;8.15;;;6.13;;
22240;SDS011;11289;52.524;13.694;2023-06-26T08:02:15;8.30;;;6.68;;
22240;SDS011;11289;52.524;13.694;2023-06-26T08:04:41;7.28;;;6.45;;
22240;SDS011;11289;52.524;13.694;2023-06-26T08:07:07;7.82;;;6.07;;
22240;SDS011;11289;52.524;13.694;2023-06-26T08:09:33;6.90;;;5.85;;
22240;SDS011;11289;52.524;13.694;2023-06-26T08:11:59;7.35;;;5.78;;
22240;SDS011;11289;52.524;13.694;2023-06-26T08:14:25;6.50;;;5.38;;
22240;SDS011;11289;52.524;13.694;2023-06-26T08:16:51;5.47;;;4.90;;
22240;SDS011;11289;52.524;13.694;2023-06-26T08:19:17;6.82;;;4.75;;
22240;SDS011;11289;52.524;13.694;2023-06-26T08:21:44;6.28;;;5.28;;
22240;SDS011;11289;52.524;13.694;2023-06-26T08:24:11;5.57;;;5.05;;
22240;SDS011;11289;52.524;13.694;2023-06-26T08:26:44;5.70;;;5.10;;
22240;SDS011;11289;52.524;13.694;2023-06-26T08:29:12;15.63;;;5.93;;
22240;SDS011;11289;52.524;13.694;2023-06-26T08:31:38;6.65;;;4.70;;
22240;SDS011;11289;52.524;13.694;2023-06-26T08:34:06;5.72;;;5.07;;
22240;SDS011;11289;52.524;13.694;2023-06-26T08:36:32;7.10;;;5.35;;
22240;SDS011;11289;52.524;13.694;2023-06-26T08:38:59;8.15;;;5.57;;
22240;SDS011;11289;52.524;13.694;2023-06-26T08:41:25;6.88;;;5.47;;
22240;SDS011;11289;52.524;13.694;2023-06-26T08:43:51;6.10;;;4.63;;
22240;SDS011;11289;52.524;13.694;2023-06-26T08:46:18;5.82;;;4.38;;
22240;SDS011;11289;52.524;13.694;2023-06-26T08:48:48;5.70;;;4.53;;
22240;SDS011;11289;52.524;13.694;2023-06-26T08:51:20;6.82;;;5.43;;
22240;SDS011;11289;52.524;13.694;2023-06-26T08:53:55;5.53;;;4.90;;
22240;SDS011;11289;52.524;13.694;2023-06-26T08:56:23;7.00;;;5.78;;
22240;SDS011;11289;52.524;13.694;2023-06-26T08:58:53;5.97;;;5.38;;
22240;SDS011;11289;52.524;13.694;2023-06-26T09:01:20;8.10;;;5.18;;
22240;SDS011;11289;52.524;13.694;2023-06-26T09:03:46;5.00;;;4.30;;
22240;SDS011;11289;52.524;13.694;2023-06-26T09:06:12;7.78;;;4.95;;
22240;SDS011;11289;52.524;13.694;2023-06-26T09:08:38;7.20;;;4.50;;
22240;SDS011;11289;52.524;13.694;2023-06-26T09:11:04;5.45;;;4.50;;
22240;SDS011;11289;52.524;13.694;2023-06-26T09:13:30;6.50;;;4.40;;
22240;SDS011;11289;52.524;13.694;2023-06-26T09:15:56;6.78;;;4.70;;
22240;SDS011;11289;52.524;13.694;2023-06-26T09:18:22;8.70;;;4.72;;
22240;SDS011;11289;52.524;13.694;2023-06-26T09:20:48;7.53;;;4.57;;
22240;SDS011;11289;52.524;13.694;2023-06-26T09:23:15;4.85;;;3.88;;
22240;SDS011;11289;52.524;13.694;2023-06-26T09:25:41;5.55;;;4.30;;
22240;SDS011;11289;52.524;13.694;2023-06-26T09:28:08;5.25;;;4.13;;
22240;SDS011;11289;52.524;13.694;2023-06-26T09:30:35;8.13;;;4.63;;
22240;SDS011;11289;52.524;13.694;2023-06-26T09:33:35;4.70;;;4.10;;
22240;SDS011;11289;52.524;13.694;2023-06-26T09:35:58;4.60;;;3.80;;
22240;SDS011;11289;52.524;13.694;2023-06-26T09:38:24;5.80;;;4.57;;
22240;SDS011;11289;52.524;13.694;2023-06-26T09:40:50;5.15;;;3.38;;
22240;SDS011;11289;52.524;13.694;2023-06-26T09:43:16;4.40;;;3.38;;
22240;SDS011;11289;52.524;13.694;2023-06-26T09:45:44;4.38;;;3.28;;
22240;SDS011;11289;52.524;13.694;2023-06-26T09:48:10;4.60;;;3.17;;
22240;SDS011;11289;52.524;13.694;2023-06-26T09:50:41;3.58;;;3.28;;
22240;SDS011;11289;52.524;13.694;2023-06-26T09:53:08;4.13;;;2.95;;
22240;SDS011;11289;52.524;13.694;2023-06-26T09:55:35;6.32;;;3.38;;
22240;SDS011;11289;52.524;13.694;2023-06-26T09:58:06;8.40;;;3.42;;
22240;SDS011;11289;52.524;13.694;2023-06-26T10:00:32;4.05;;;3.20;;
22240;SDS011;11289;52.524;13.694;2023-06-26T10:02:58;4.32;;;3.53;;
22240;SDS011;11289;52.524;13.694;2023-06-26T10:05:25;3.85;;;3.03;;
22240;SDS011;11289;52.524;13.694;2023-06-26T10:07:51;4.03;;;2.97;;
22240;SDS011;11289;52.524;13.694;2023-06-26T10:10:18;4.80;;;2.88;;
22240;SDS011;11289;52.524;13.694;2023-06-26T10:12:45;4.07;;;2.97;;
22240;SDS011;11289;52.524;13.694;2023-06-26T10:15:16;6.50;;;3.60;;
22240;SDS011;11289;52.524;13.694;2023-06-26T10:17:44;4.60;;;3.03;;
22240;SDS011;11289;52.524;13.694;2023-06-26T10:20:12;3.90;;;3.00;;
22240;SDS011;11289;52.524;13.694;2023-06-26T10:22:44;4.88;;;3.50;;
22240;SDS011;11289;52.524;13.694;2023-06-26T10:25:12;5.18;;;3.55;;
22240;SDS011;11289;52.524;13.694;2023-06-26T10:27:44;4.77;;;3.80;;
22240;SDS011;11289;52.524;13.694;2023-06-26T10:30:14;4.90;;;3.83;;
22240;SDS011;11289;52.524;13.694;2023-06-26T10:32:46;4.30;;;3.47;;
22240;SDS011;11289;52.524;13.694;2023-06-26T10:35:12;5.63;;;3.83;;
22240;SDS011;11289;52.524;13.694;2023-06-26T10:37:45;6.90;;;4.22;;
22240;SDS011;11289;52.524;13.694;2023-06-26T10:40:24;4.63;;;3.65;;
22240;SDS011;11289;52.524;13.694;2023-06-26T10:42:51;6.63;;;4.10;;
22240;SDS011;11289;52.524;13.694;2023-06-26T10:45:32;6.57;;;4.22;;
22240;SDS011;11289;52.524;13.694;2023-06-26T10:47:59;6.15;;;4.28;;
22240;SDS011;11289;52.524;13.694;2023-06-26T10:50:27;5.20;;;4.13;;
22240;SDS011;11289;52.524;13.694;2023-06-26T10:53:08;4.72;;;3.90;;
22240;SDS011;11289;52.524;13.694;2023-06-26T11:01:14;5.68;;;3.97;;
22240;SDS011;11289;52.524;13.694;2023-06-26T11:03:40;9.88;;;3.67;;
22240;SDS011;11289;52.524;13.694;2023-06-26T11:06:14;4.28;;;3.88;;
22240;SDS011;11289;52.524;13.694;2023-06-26T11:08:49;7.50;;;4.05;;
22240;SDS011;11289;52.524;13.694;2023-06-26T11:11:19;4.45;;;3.83;;
22240;SDS011;11289;52.524;13.694;2023-06-26T11:13:46;5.85;;;4.22;;
22240;SDS011;11289;52.524;13.694;2023-06-26T11:16:13;5.63;;;3.67;;
22240;SDS011;11289;52.524;13.694;2023-06-26T11:18:41;4.25;;;3.58;;
22240;SDS011;11289;52.524;13.694;2023-06-26T11:21:10;7.80;;;4.80;;
22240;SDS011;11289;52.524;13.694;2023-06-26T11:23:40;4.10;;;3.42;;
22240;SDS011;11289;52.524;13.694;2023-06-26T11:26:13;4.82;;;3.63;;
22240;SDS011;11289;52.524;13.694;2023-06-26T11:28:47;4.72;;;4.25;;
22240;SDS011;11289;52.524;13.694;2023-06-26T11:31:26;5.80;;;4.60;;
22240;SDS011;11289;52.524;13.694;2023-06-26T11:33:56;5.30;;;3.97;;
22240;SDS011;11289;52.524;13.694;2023-06-26T11:36:24;7.00;;;4.00;;
22240;SDS011;11289;52.524;13.694;2023-06-26T11:41:21;5.55;;;4.35;;
22240;SDS011;11289;52.524;13.694;2023-06-26T11:43:48;5.47;;;4.78;;
22240;SDS011;11289;52.524;13.694;2023-06-26T11:46:17;4.80;;;4.25;;
22240;SDS011;11289;52.524;13.694;2023-06-26T11:48:44;5.50;;;4.00;;
22240;SDS011;11289;52.524;13.694;2023-06-26T11:51:14;4.30;;;3.88;;
22240;SDS011;11289;52.524;13.694;2023-06-26T11:53:41;5.35;;;3.95;;
22240;SDS011;11289;52.524;13.694;2023-06-26T11:56:10;4.38;;;3.60;;
22240;SDS011;11289;52.524;13.694;2023-06-26T12:01:27;5.57;;;4.38;;
22240;SDS011;11289;52.524;13.694;2023-06-26T12:03:58;4.65;;;3.92;;
22240;SDS011;11289;52.524;13.694;2023-06-26T12:06:29;4.75;;;3.83;;
22240;SDS011;11289;52.524;13.694;2023-06-26T12:08:58;5.82;;;4.22;;
22240;SDS011;11289;52.524;13.694;2023-06-26T12:11:26;6.68;;;3.95;;
22240;SDS011;11289;52.524;13.694;2023-06-26T12:13:54;4.70;;;4.10;;
22240;SDS011;11289;52.524;13.694;2023-06-26T12:16:20;5.85;;;3.63;;
22240;SDS011;11289;52.524;13.694;2023-06-26T12:18:46;5.45;;;3.80;;
22240;SDS011;11289;52.524;13.694;2023-06-26T12:21:27;5.07;;;4.18;;
22240;SDS011;11289;52.524;13.694;2023-06-26T12:23:58;7.53;;;4.45;;
22240;SDS011;11289;52.524;13.694;2023-06-26T12:26:25;4.68;;;3.47;;
22240;SDS011;11289;52.524;13.694;2023-06-26T12:28:52;5.97;;;4.20;;
22240;SDS011;11289;52.524;13.694;2023-06-26T12:31:20;4.93;;;4.30;;
22240;SDS011;11289;52.524;13.694;2023-06-26T12:33:47;4.65;;;4.00;;
22240;SDS011;11289;52.524;13.694;2023-06-26T12:36:13;20.33;;;4.40;;
22240;SDS011;11289;52.524;13.694;2023-06-26T12:38:40;5.25;;;4.35;;
22240;SDS011;11289;52.524;13.694;2023-06-26T12:41:13;5.45;;;4.03;;
22240;SDS011;11289;52.524;13.694;2023-06-26T12:43:42;6.25;;;4.50;;
22240;SDS011;11289;52.524;13.694;2023-06-26T12:46:08;6.70;;;4.03;;
22240;SDS011;11289;52.524;13.694;2023-06-26T12:48:38;4.80;;;4.30;;
22240;SDS011;11289;52.524;13.694;2023-06-26T12:51:18;5.38;;;4.18;;
22240;SDS011;11289;52.524;13.694;2023-06-26T12:53:44;5.90;;;3.85;;
22240;SDS011;11289;52.524;13.694;2023-06-26T12:56:10;5.57;;;4.38;;
22240;SDS011;11289;52.524;13.694;2023-06-26T12:58:37;5.05;;;4.00;;
22240;SDS011;11289;52.524;13.694;2023-06-26T13:01:04;5.05;;;4.28;;
22240;SDS011;11289;52.524;13.694;2023-06-26T13:03:36;7.00;;;4.05;;
22240;SDS011;11289;52.524;13.694;2023-06-26T13:06:02;6.05;;;4.32;;
22240;SDS011;11289;52.524;13.694;2023-06-26T13:08:28;7.18;;;4.13;;
22240;SDS011;11289;52.524;13.694;2023-06-26T13:10:54;5.72;;;4.35;;
22240;SDS011;11289;52.524;13.694;2023-06-26T13:13:20;5.28;;;4.45;;
22240;SDS011;11289;52.524;13.694;2023-06-26T13:15:46;6.45;;;4.20;;
22240;SDS011;11289;52.524;13.694;2023-06-26T13:18:12;4.40;;;4.00;;
22240;SDS011;11289;52.524;13.694;2023-06-26T13:20:38;6.47;;;4.72;;
22240;SDS011;11289;52.524;13.694;2023-06-26T13:23:04;5.35;;;4.85;;
22240;SDS011;11289;52.524;13.694;2023-06-26T13:25:30;5.85;;;4.72;;
22240;SDS011;11289;52.524;13.694;2023-06-26T13:27:56;8.40;;;5.20;;
22240;SDS011;11289;52.524;13.694;2023-06-26T13:30:22;6.07;;;4.60;;
22240;SDS011;11289;52.524;13.694;2023-06-26T13:32:48;4.93;;;4.43;;
22240;SDS011;11289;52.524;13.694;2023-06-26T13:35:14;5.95;;;5.35;;
22240;SDS011;11289;52.524;13.694;2023-06-26T13:37:40;7.03;;;4.68;;
22240;SDS011;11289;52.524;13.694;2023-06-26T13:40:07;5.95;;;4.88;;
22240;SDS011;11289;52.524;13.694;2023-06-26T13:42:38;4.72;;;4.22;;
22240;SDS011;11289;52.524;13.694;2023-06-26T13:45:05;7.75;;;5.25;;
22240;SDS011;11289;52.524;13.694;2023-06-26T13:47:31;7.35;;;4.97;;
22240;SDS011;11289;52.524;13.694;2023-06-26T13:49:59;18.60;;;6.43;;
22240;SDS011;11289;52.524;13.694;2023-06-26T13:52:41;44.63;;;13.60;;
22240;SDS011;11289;52.524;13.694;2023-06-26T13:55:11;8.93;;;5.95;;
22240;SDS011;11289;52.524;13.694;2023-06-26T13:57:37;7.38;;;5.65;;
22240;SDS011;11289;52.524;13.694;2023-06-26T14:00:08;11.40;;;9.65;;
22240;SDS011;11289;52.524;13.694;2023-06-26T14:02:35;13.70;;;10.20;;
22240;SDS011;11289;52.524;13.694;2023-06-26T14:05:07;7.85;;;6.53;;
22240;SDS011;11289;52.524;13.694;2023-06-26T14:07:34;6.82;;;5.43;;
22240;SDS011;11289;52.524;13.694;2023-06-26T14:10:02;5.68;;;5.00;;
22240;SDS011;11289;52.524;13.694;2023-06-26T14:12:28;7.07;;;5.25;;
22240;SDS011;11289;52.524;13.694;2023-06-26T14:14:54;6.28;;;5.53;;
22240;SDS011;11289;52.524;13.694;2023-06-26T14:17:20;6.32;;;5.68;;
22240;SDS011;11289;52.524;13.694;2023-06-26T14:19:46;6.45;;;5.53;;
22240;SDS011;11289;52.524;13.694;2023-06-26T14:22:12;8.57;;;5.20;;
22240;SDS011;11289;52.524;13.694;2023-06-26T14:24:38;6.50;;;5.90;;
22240;SDS011;11289;52.524;13.694;2023-06-26T14:27:04;9.07;;;7.90;;
22240;SDS011;11289;52.524;13.694;2023-06-26T14:29:30;12.55;;;7.90;;
22240;SDS011;11289;52.524;13.694;2023-06-26T14:31:56;7.72;;;6.38;;
22240;SDS011;11289;52.524;13.694;2023-06-26T14:34:32;7.78;;;5.72;;